Sy Clevelander — 2CWE8 — position and weather

sailwx.info

Track history (hours):
 
Tides and Currents Weather Stations Pressure Air Temp Water Temp Dewpoint Dewpoint Depression Visibility Wind Speed Wind Dir Waves Ship Positions

Sy Clevelander

Last reported at 2014-Oct-23 14:18 UTC. Time now 2014-Oct-23 15:51 UTC.
Position N 32°43' W 117°14'.

Length 25 m.

Type: Sailing vessel. MMSI: 235076308.

Date/timePositionNaut miles runAvg speedWind from/ knotsBaromVisibWave heightAir tempDewpointWater temp
2014-Oct-23 14:18N 32°43' W 117°14'0 0.0
2014-Oct-23 13:30N 32°43' W 117°14'0 0.0
2014-Oct-23 12:15N 32°43' W 117°14'0 0.0
2014-Oct-23 11:33N 32°43' W 117°14'0 0.0
2014-Oct-23 09:33N 32°43' W 117°14'0 0.0
2014-Oct-23 08:30N 32°43' W 117°14'0 0.0
2014-Oct-23 07:33N 32°43' W 117°14'0 0.0
2014-Oct-23 06:18N 32°43' W 117°14'0 0.0
2014-Oct-23 04:21N 32°43' W 117°14'0 0.0
2014-Oct-23 03:33N 32°43' W 117°14'0 0.0
2014-Oct-23 02:33N 32°43' W 117°14'0 0.0
2014-Oct-23 01:33N 32°43' W 117°14'0 0.0
2014-Oct-23 00:24N 32°43' W 117°14'0 0.0
2014-Oct-22 18:19N 32°43' W 117°14'0 0.0
2014-Oct-22 10:29N 32°43' W 117°14'0 0.0
2014-Oct-22 05:32N 32°43' W 117°14'0 0.0
2014-Oct-21 14:17N 32°43' W 117°14'0 0.0
2014-Oct-21 07:21N 32°43' W 117°14'0 0.0
2014-Oct-21 03:09N 32°43' W 117°14'0 0.0
2014-Oct-20 13:27N 32°43' W 117°14'0 0.0
2014-Oct-20 09:21N 32°43' W 117°14'0 0.0
2014-Oct-19 14:15N 32°43' W 117°14'0 0.0
2014-Oct-19 13:33N 32°43' W 117°14'0 0.0
2014-Oct-18 13:15N 32°43' W 117°14'0 0.0
2014-Oct-18 10:33N 32°43' W 117°14'0 0.0
2014-Oct-18 09:33N 32°43' W 117°14'0 0.0
2014-Oct-18 05:15N 32°43' W 117°14'1 0.0
2014-Oct-16 23:20N 32°41' W 117°14'3 3.6
2014-Oct-16 22:31N 32°39' W 117°13'2 1.6
2014-Oct-16 21:33N 32°37' W 117°13'5 0.2
2014-Oct-15 17:16N 32°43' W 117°14'0 0.0
2014-Oct-15 14:22N 32°43' W 117°14'0 0.0
2014-Oct-15 13:16N 32°43' W 117°14'0 0.0
2014-Oct-15 12:28N 32°43' W 117°14'0 0.0
2014-Oct-15 11:28N 32°43' W 117°14'0 0.0
2014-Oct-15 10:25N 32°43' W 117°14'0 0.0
2014-Oct-15 08:28N 32°43' W 117°14'0 0.0
2014-Oct-15 05:22N 32°43' W 117°14'0 0.0
2014-Oct-15 04:22N 32°43' W 117°14'0 0.0
2014-Oct-15 02:16N 32°43' W 117°14'0 0.0
2014-Oct-15 01:28N 32°43' W 117°14'0 0.0
2014-Oct-14 23:25N 32°43' W 117°14'0 0.0
2014-Oct-14 19:23N 32°43' W 117°14'0 0.0
2014-Oct-14 18:10N 32°43' W 117°14'3 4.7
2014-Oct-14 17:33N 32°40' W 117°14'3 0.5
2014-Oct-14 12:09N 32°43' W 117°14'0 0.0
2014-Oct-14 09:15N 32°43' W 117°14'0 0.0
2014-Oct-14 06:24N 32°43' W 117°14'0 0.0
2014-Oct-14 04:27N 32°43' W 117°14'0 0.0
2014-Oct-14 03:12N 32°43' W 117°14'0 0.0
2014-Oct-14 02:15N 32°43' W 117°14'0 0.0
2014-Oct-14 00:33N 32°43' W 117°14'0 0.0
2014-Oct-13 23:27N 32°43' W 117°14'0 0.0
2014-Oct-13 21:27N 32°43' W 117°14'0 0.0
2014-Oct-13 20:18N 32°43' W 117°14'  
Track history (hours):
 
Tides and Currents Weather Stations Pressure Air Temp Water Temp Dewpoint Dewpoint Depression Visibility Wind Speed Wind Dir Waves Ship Positions

Sy Clevelander

Last reported at 2014-Oct-23 14:18 UTC. Time now 2014-Oct-23 15:51 UTC.
Position N 32°43' W 117°14'.

Length 25 m.

Type: Sailing vessel. MMSI: 235076308.

Date/timePositionNaut miles runAvg speedWind from/ knotsBaromVisibWave heightAir tempDewpointWater temp
2014-Oct-23 14:18N 32°43' W 117°14'0 0.0
2014-Oct-23 13:30N 32°43' W 117°14'0 0.0
2014-Oct-23 12:15N 32°43' W 117°14'0 0.0
2014-Oct-23 11:33N 32°43' W 117°14'0 0.0
2014-Oct-23 09:33N 32°43' W 117°14'0 0.0
2014-Oct-23 08:30N 32°43' W 117°14'0 0.0
2014-Oct-23 07:33N 32°43' W 117°14'0 0.0
2014-Oct-23 06:18N 32°43' W 117°14'0 0.0
2014-Oct-23 04:21N 32°43' W 117°14'0 0.0
2014-Oct-23 03:33N 32°43' W 117°14'0 0.0
2014-Oct-23 02:33N 32°43' W 117°14'0 0.0
2014-Oct-23 01:33N 32°43' W 117°14'0 0.0
2014-Oct-23 00:24N 32°43' W 117°14'0 0.0
2014-Oct-22 18:19N 32°43' W 117°14'0 0.0
2014-Oct-22 10:29N 32°43' W 117°14'0 0.0
2014-Oct-22 05:32N 32°43' W 117°14'0 0.0
2014-Oct-21 14:17N 32°43' W 117°14'0 0.0
2014-Oct-21 07:21N 32°43' W 117°14'0 0.0
2014-Oct-21 03:09N 32°43' W 117°14'0 0.0
2014-Oct-20 13:27N 32°43' W 117°14'0 0.0
2014-Oct-20 09:21N 32°43' W 117°14'0 0.0
2014-Oct-19 14:15N 32°43' W 117°14'0 0.0
2014-Oct-19 13:33N 32°43' W 117°14'0 0.0
2014-Oct-18 13:15N 32°43' W 117°14'0 0.0
2014-Oct-18 10:33N 32°43' W 117°14'0 0.0
2014-Oct-18 09:33N 32°43' W 117°14'0 0.0
2014-Oct-18 05:15N 32°43' W 117°14'1 0.0
2014-Oct-16 23:20N 32°41' W 117°14'3 3.6
2014-Oct-16 22:31N 32°39' W 117°13'2 1.6
2014-Oct-16 21:33N 32°37' W 117°13'5 0.2
2014-Oct-15 17:16N 32°43' W 117°14'0 0.0
2014-Oct-15 14:22N 32°43' W 117°14'0 0.0
2014-Oct-15 13:16N 32°43' W 117°14'0 0.0
2014-Oct-15 12:28N 32°43' W 117°14'0 0.0
2014-Oct-15 11:28N 32°43' W 117°14'0 0.0
2014-Oct-15 10:25N 32°43' W 117°14'0 0.0
2014-Oct-15 08:28N 32°43' W 117°14'0 0.0
2014-Oct-15 05:22N 32°43' W 117°14'0 0.0
2014-Oct-15 04:22N 32°43' W 117°14'0 0.0
2014-Oct-15 02:16N 32°43' W 117°14'0 0.0
2014-Oct-15 01:28N 32°43' W 117°14'0 0.0
2014-Oct-14 23:25N 32°43' W 117°14'0 0.0
2014-Oct-14 19:23N 32°43' W 117°14'0 0.0
2014-Oct-14 18:10N 32°43' W 117°14'3 4.7
2014-Oct-14 17:33N 32°40' W 117°14'3 0.5
2014-Oct-14 12:09N 32°43' W 117°14'0 0.0
2014-Oct-14 09:15N 32°43' W 117°14'0 0.0
2014-Oct-14 06:24N 32°43' W 117°14'0 0.0
2014-Oct-14 04:27N 32°43' W 117°14'0 0.0
2014-Oct-14 03:12N 32°43' W 117°14'0 0.0
2014-Oct-14 02:15N 32°43' W 117°14'0 0.0
2014-Oct-14 00:33N 32°43' W 117°14'0 0.0
2014-Oct-13 23:27N 32°43' W 117°14'0 0.0
2014-Oct-13 21:27N 32°43' W 117°14'0 0.0
2014-Oct-13 20:18N 32°43' W 117°14'  

Dump ship's entire track history